sensor_id;sensor_type;location;lat;lon;timestamp;temperature;humidity
64855;DHT22;51321;50.428;8.378;2023-04-16T00:01:06;8.80;99.90
64855;DHT22;51321;50.428;8.378;2023-04-16T00:03:47;8.80;99.90
64855;DHT22;51321;50.428;8.378;2023-04-16T00:06:28;8.80;99.90
64855;DHT22;51321;50.428;8.378;2023-04-16T00:09:12;8.70;99.90
64855;DHT22;51321;50.428;8.378;2023-04-16T00:11:52;8.70;99.90
64855;DHT22;51321;50.428;8.378;2023-04-16T00:14:34;8.70;99.90
64855;DHT22;51321;50.428;8.378;2023-04-16T00:17:15;8.70;99.90
64855;DHT22;51321;50.428;8.378;2023-04-16T00:19:56;8.70;99.90
64855;DHT22;51321;50.428;8.378;2023-04-16T00:22:37;8.80;99.90
64855;DHT22;51321;50.428;8.378;2023-04-16T00:25:20;8.80;99.90
64855;DHT22;51321;50.428;8.378;2023-04-16T00:28:01;8.80;99.90
64855;DHT22;51321;50.428;8.378;2023-04-16T00:30:42;8.80;99.90
64855;DHT22;51321;50.428;8.378;2023-04-16T00:33:24;8.80;99.90
64855;DHT22;51321;50.428;8.378;2023-04-16T00:36:05;8.80;99.90
64855;DHT22;51321;50.428;8.378;2023-04-16T00:38:47;8.70;99.90
64855;DHT22;51321;50.428;8.378;2023-04-16T00:41:30;8.80;99.90
64855;DHT22;51321;50.428;8.378;2023-04-16T00:44:11;8.80;99.90
64855;DHT22;51321;50.428;8.378;2023-04-16T00:46:54;8.80;99.90
64855;DHT22;51321;50.428;8.378;2023-04-16T00:49:35;8.90;99.90
64855;DHT22;51321;50.428;8.378;2023-04-16T00:52:16;8.80;99.90
64855;DHT22;51321;50.428;8.378;2023-04-16T00:54:59;8.80;99.90
64855;DHT22;51321;50.428;8.378;2023-04-16T00:57:42;8.80;99.90
64855;DHT22;51321;50.428;8.378;2023-04-16T01:00:23;8.80;99.90
64855;DHT22;51321;50.428;8.378;2023-04-16T01:03:07;8.80;99.90
64855;DHT22;51321;50.428;8.378;2023-04-16T01:05:49;8.90;99.90
64855;DHT22;51321;50.428;8.378;2023-04-16T01:08:31;8.90;99.90
64855;DHT22;51321;50.428;8.378;2023-04-16T01:11:12;8.90;99.90
64855;DHT22;51321;50.428;8.378;2023-04-16T01:13:55;8.90;99.90
64855;DHT22;51321;50.428;8.378;2023-04-16T01:16:36;9.00;99.90
64855;DHT22;51321;50.428;8.378;2023-04-16T01:19:17;9.00;99.90
64855;DHT22;51321;50.428;8.378;2023-04-16T01:22:02;8.90;99.90
64855;DHT22;51321;50.428;8.378;2023-04-16T01:24:43;8.90;99.90
64855;DHT22;51321;50.428;8.378;2023-04-16T01:27:09;8.90;99.90
64855;DHT22;51321;50.428;8.378;2023-04-16T01:29:50;8.80;99.90
64855;DHT22;51321;50.428;8.378;2023-04-16T01:32:36;8.90;99.90
64855;DHT22;51321;50.428;8.378;2023-04-16T01:35:17;8.90;99.90
64855;DHT22;51321;50.428;8.378;2023-04-16T01:38:00;8.90;99.90
64855;DHT22;51321;50.428;8.378;2023-04-16T01:40:40;8.90;99.90
64855;DHT22;51321;50.428;8.378;2023-04-16T01:43:22;8.90;99.90
64855;DHT22;51321;50.428;8.378;2023-04-16T01:46:13;8.80;99.90
64855;DHT22;51321;50.428;8.378;2023-04-16T01:48:55;8.80;99.90
64855;DHT22;51321;50.428;8.378;2023-04-16T01:51:36;8.80;99.90
64855;DHT22;51321;50.428;8.378;2023-04-16T01:54:20;8.80;99.90
64855;DHT22;51321;50.428;8.378;2023-04-16T01:57:01;8.80;99.90
64855;DHT22;51321;50.428;8.378;2023-04-16T01:59:42;8.80;99.90
64855;DHT22;51321;50.428;8.378;2023-04-16T02:02:23;8.70;99.90
64855;DHT22;51321;50.428;8.378;2023-04-16T02:05:07;8.70;99.90
64855;DHT22;51321;50.428;8.378;2023-04-16T02:07:48;8.70;99.90
64855;DHT22;51321;50.428;8.378;2023-04-16T02:10:31;8.70;99.90
64855;DHT22;51321;50.428;8.378;2023-04-16T02:13:12;8.70;99.90
64855;DHT22;51321;50.428;8.378;2023-04-16T02:15:56;8.60;99.90
64855;DHT22;51321;50.428;8.378;2023-04-16T02:18:48;8.80;99.90
64855;DHT22;51321;50.428;8.378;2023-04-16T02:21:31;8.80;99.90
64855;DHT22;51321;50.428;8.378;2023-04-16T02:24:14;8.70;99.90
64855;DHT22;51321;50.428;8.378;2023-04-16T02:26:57;8.80;99.90
64855;DHT22;51321;50.428;8.378;2023-04-16T02:29:37;8.70;99.90
64855;DHT22;51321;50.428;8.378;2023-04-16T02:32:26;8.60;99.90
64855;DHT22;51321;50.428;8.378;2023-04-16T02:35:10;8.70;99.90
64855;DHT22;51321;50.428;8.378;2023-04-16T02:37:51;8.70;99.90
64855;DHT22;51321;50.428;8.378;2023-04-16T02:40:32;8.60;99.90
64855;DHT22;51321;50.428;8.378;2023-04-16T02:43:14;8.60;99.90
64855;DHT22;51321;50.428;8.378;2023-04-16T02:45:55;8.60;99.90
64855;DHT22;51321;50.428;8.378;2023-04-16T02:48:37;8.70;99.90
64855;DHT22;51321;50.428;8.378;2023-04-16T02:51:18;8.60;99.90
64855;DHT22;51321;50.428;8.378;2023-04-16T02:53:59;8.60;99.90
64855;DHT22;51321;50.428;8.378;2023-04-16T02:56:41;8.60;99.90
64855;DHT22;51321;50.428;8.378;2023-04-16T02:59:27;8.60;99.90
64855;DHT22;51321;50.428;8.378;2023-04-16T03:02:08;8.70;99.90
64855;DHT22;51321;50.428;8.378;2023-04-16T03:04:52;8.60;99.90
64855;DHT22;51321;50.428;8.378;2023-04-16T03:07:32;8.70;99.90
64855;DHT22;51321;50.428;8.378;2023-04-16T03:10:13;8.70;99.90
64855;DHT22;51321;50.428;8.378;2023-04-16T03:12:55;8.70;99.90
64855;DHT22;51321;50.428;8.378;2023-04-16T03:15:37;8.70;99.90
64855;DHT22;51321;50.428;8.378;2023-04-16T03:18:18;8.70;99.90
64855;DHT22;51321;50.428;8.378;2023-04-16T03:21:02;8.70;99.90
64855;DHT22;51321;50.428;8.378;2023-04-16T03:23:45;8.70;99.90
64855;DHT22;51321;50.428;8.378;2023-04-16T03:26:26;8.70;99.90
64855;DHT22;51321;50.428;8.378;2023-04-16T03:29:10;8.70;99.90
64855;DHT22;51321;50.428;8.378;2023-04-16T03:31:52;8.60;99.90
64855;DHT22;51321;50.428;8.378;2023-04-16T03:34:35;8.70;99.90
64855;DHT22;51321;50.428;8.378;2023-04-16T03:37:16;8.70;99.90
64855;DHT22;51321;50.428;8.378;2023-04-16T03:39:57;8.70;99.90
64855;DHT22;51321;50.428;8.378;2023-04-16T03:42:39;8.70;99.90
64855;DHT22;51321;50.428;8.378;2023-04-16T03:45:20;8.70;99.90
64855;DHT22;51321;50.428;8.378;2023-04-16T03:48:04;8.80;99.90
64855;DHT22;51321;50.428;8.378;2023-04-16T03:50:45;8.80;99.90
64855;DHT22;51321;50.428;8.378;2023-04-16T03:53:28;8.80;99.90
64855;DHT22;51321;50.428;8.378;2023-04-16T03:56:09;8.80;99.90
64855;DHT22;51321;50.428;8.378;2023-04-16T03:58:51;8.70;99.90
64855;DHT22;51321;50.428;8.378;2023-04-16T04:01:32;8.70;99.90
64855;DHT22;51321;50.428;8.378;2023-04-16T04:04:14;8.80;99.90
64855;DHT22;51321;50.428;8.378;2023-04-16T04:06:55;8.70;99.90
64855;DHT22;51321;50.428;8.378;2023-04-16T04:09:38;8.60;99.90
64855;DHT22;51321;50.428;8.378;2023-04-16T04:12:20;8.60;99.90
64855;DHT22;51321;50.428;8.378;2023-04-16T04:15:01;8.70;99.90
64855;DHT22;51321;50.428;8.378;2023-04-16T04:17:45;8.70;99.90
64855;DHT22;51321;50.428;8.378;2023-04-16T04:20:27;8.80;99.90
64855;DHT22;51321;50.428;8.378;2023-04-16T04:23:08;8.70;99.90
64855;DHT22;51321;50.428;8.378;2023-04-16T04:25:54;8.70;99.90
64855;DHT22;51321;50.428;8.378;2023-04-16T04:28:35;8.70;99.90
64855;DHT22;51321;50.428;8.378;2023-04-16T04:31:17;8.80;99.90
64855;DHT22;51321;50.428;8.378;2023-04-16T04:33:58;8.70;99.90
64855;DHT22;51321;50.428;8.378;2023-04-16T04:36:41;8.70;99.90
64855;DHT22;51321;50.428;8.378;2023-04-16T04:39:22;8.80;99.90
64855;DHT22;51321;50.428;8.378;2023-04-16T04:42:03;8.70;99.90
64855;DHT22;51321;50.428;8.378;2023-04-16T04:44:45;8.70;99.90
64855;DHT22;51321;50.428;8.378;2023-04-16T04:47:26;8.70;99.90
64855;DHT22;51321;50.428;8.378;2023-04-16T04:50:08;8.60;99.90
64855;DHT22;51321;50.428;8.378;2023-04-16T04:52:50;8.70;99.90
64855;DHT22;51321;50.428;8.378;2023-04-16T04:55:31;8.70;99.90
64855;DHT22;51321;50.428;8.378;2023-04-16T04:58:15;8.70;99.90
64855;DHT22;51321;50.428;8.378;2023-04-16T05:00:56;8.70;99.90
64855;DHT22;51321;50.428;8.378;2023-04-16T05:03:37;8.70;99.90
64855;DHT22;51321;50.428;8.378;2023-04-16T05:06:17;8.70;99.90
64855;DHT22;51321;50.428;8.378;2023-04-16T05:09:00;8.70;99.90
64855;DHT22;51321;50.428;8.378;2023-04-16T05:11:41;8.70;99.90
64855;DHT22;51321;50.428;8.378;2023-04-16T05:14:22;8.80;99.90
64855;DHT22;51321;50.428;8.378;2023-04-16T05:17:03;8.70;99.90
64855;DHT22;51321;50.428;8.378;2023-04-16T05:19:44;8.80;99.90
64855;DHT22;51321;50.428;8.378;2023-04-16T05:22:25;8.80;99.90
64855;DHT22;51321;50.428;8.378;2023-04-16T05:25:08;8.90;99.90
64855;DHT22;51321;50.428;8.378;2023-04-16T05:27:50;8.90;99.90
64855;DHT22;51321;50.428;8.378;2023-04-16T05:30:32;8.90;99.90
64855;DHT22;51321;50.428;8.378;2023-04-16T05:33:16;8.90;99.90
64855;DHT22;51321;50.428;8.378;2023-04-16T05:36:00;8.80;99.90
64855;DHT22;51321;50.428;8.378;2023-04-16T05:38:41;8.90;99.90
64855;DHT22;51321;50.428;8.378;2023-04-16T05:41:24;8.90;99.90
64855;DHT22;51321;50.428;8.378;2023-04-16T05:44:05;8.90;99.90
64855;DHT22;51321;50.428;8.378;2023-04-16T05:46:49;8.90;99.90
64855;DHT22;51321;50.428;8.378;2023-04-16T05:49:30;8.80;99.90
64855;DHT22;51321;50.428;8.378;2023-04-16T05:52:11;8.80;99.90
64855;DHT22;51321;50.428;8.378;2023-04-16T05:54:51;8.80;99.90
64855;DHT22;51321;50.428;8.378;2023-04-16T05:57:34;8.80;99.90
64855;DHT22;51321;50.428;8.378;2023-04-16T06:00:15;8.80;99.90
64855;DHT22;51321;50.428;8.378;2023-04-16T06:02:57;8.80;99.90
64855;DHT22;51321;50.428;8.378;2023-04-16T06:05:40;8.80;99.90
64855;DHT22;51321;50.428;8.378;2023-04-16T06:08:24;8.80;99.90
64855;DHT22;51321;50.428;8.378;2023-04-16T06:11:08;8.80;99.90
64855;DHT22;51321;50.428;8.378;2023-04-16T06:13:54;8.90;99.90
64855;DHT22;51321;50.428;8.378;2023-04-16T06:16:41;8.80;99.90
64855;DHT22;51321;50.428;8.378;2023-04-16T06:19:37;8.90;99.90
64855;DHT22;51321;50.428;8.378;2023-04-16T06:22:33;8.80;99.90
64855;DHT22;51321;50.428;8.378;2023-04-16T06:25:20;8.80;99.90
64855;DHT22;51321;50.428;8.378;2023-04-16T06:28:03;8.80;99.90
64855;DHT22;51321;50.428;8.378;2023-04-16T06:30:51;8.80;99.90
64855;DHT22;51321;50.428;8.378;2023-04-16T06:33:35;8.80;99.90
64855;DHT22;51321;50.428;8.378;2023-04-16T06:36:21;8.90;99.90
64855;DHT22;51321;50.428;8.378;2023-04-16T06:39:08;8.90;99.90
64855;DHT22;51321;50.428;8.378;2023-04-16T06:41:49;8.90;99.90
64855;DHT22;51321;50.428;8.378;2023-04-16T06:44:31;8.90;99.90
64855;DHT22;51321;50.428;8.378;2023-04-16T06:47:15;9.00;99.90
64855;DHT22;51321;50.428;8.378;2023-04-16T06:49:59;9.00;99.90
64855;DHT22;51321;50.428;8.378;2023-04-16T06:52:42;8.90;99.90
64855;DHT22;51321;50.428;8.378;2023-04-16T06:55:23;8.90;99.90
64855;DHT22;51321;50.428;8.378;2023-04-16T06:58:09;8.90;99.90
64855;DHT22;51321;50.428;8.378;2023-04-16T07:00:50;8.90;99.90
64855;DHT22;51321;50.428;8.378;2023-04-16T07:03:33;8.90;99.90
64855;DHT22;51321;50.428;8.378;2023-04-16T07:06:18;8.90;99.90
64855;DHT22;51321;50.428;8.378;2023-04-16T07:09:02;8.90;99.90
64855;DHT22;51321;50.428;8.378;2023-04-16T07:11:43;9.00;99.90
64855;DHT22;51321;50.428;8.378;2023-04-16T07:14:24;8.90;99.90
64855;DHT22;51321;50.428;8.378;2023-04-16T07:17:13;9.00;99.90
64855;DHT22;51321;50.428;8.378;2023-04-16T07:19:56;9.00;99.90
64855;DHT22;51321;50.428;8.378;2023-04-16T07:22:37;9.00;99.90
64855;DHT22;51321;50.428;8.378;2023-04-16T07:25:22;9.20;99.90
64855;DHT22;51321;50.428;8.378;2023-04-16T07:28:02;9.20;99.90
64855;DHT22;51321;50.428;8.378;2023-04-16T07:30:45;9.20;99.90
64855;DHT22;51321;50.428;8.378;2023-04-16T07:33:26;9.20;99.90
64855;DHT22;51321;50.428;8.378;2023-04-16T07:36:08;9.20;99.90
64855;DHT22;51321;50.428;8.378;2023-04-16T07:38:51;9.20;99.90
64855;DHT22;51321;50.428;8.378;2023-04-16T07:41:32;9.30;99.90
64855;DHT22;51321;50.428;8.378;2023-04-16T07:44:13;9.30;99.90
64855;DHT22;51321;50.428;8.378;2023-04-16T07:46:54;9.40;99.90
64855;DHT22;51321;50.428;8.378;2023-04-16T07:49:34;9.40;99.90
64855;DHT22;51321;50.428;8.378;2023-04-16T07:52:20;9.50;99.90
64855;DHT22;51321;50.428;8.378;2023-04-16T07:55:01;9.60;99.90
64855;DHT22;51321;50.428;8.378;2023-04-16T07:57:41;9.70;99.90
64855;DHT22;51321;50.428;8.378;2023-04-16T08:00:22;9.70;99.90
64855;DHT22;51321;50.428;8.378;2023-04-16T08:03:04;9.80;99.90
64855;DHT22;51321;50.428;8.378;2023-04-16T08:05:45;10.00;99.90
64855;DHT22;51321;50.428;8.378;2023-04-16T08:08:28;10.00;99.90
64855;DHT22;51321;50.428;8.378;2023-04-16T08:11:11;10.10;99.90
64855;DHT22;51321;50.428;8.378;2023-04-16T08:13:52;10.10;99.90
64855;DHT22;51321;50.428;8.378;2023-04-16T08:16:33;10.20;99.90
64855;DHT22;51321;50.428;8.378;2023-04-16T08:19:14;10.30;99.90
64855;DHT22;51321;50.428;8.378;2023-04-16T08:21:55;10.30;99.90
64855;DHT22;51321;50.428;8.378;2023-04-16T08:24:37;10.40;99.90
64855;DHT22;51321;50.428;8.378;2023-04-16T08:27:20;10.40;99.90
64855;DHT22;51321;50.428;8.378;2023-04-16T08:30:01;10.40;99.90
64855;DHT22;51321;50.428;8.378;2023-04-16T08:32:41;10.50;99.90
64855;DHT22;51321;50.428;8.378;2023-04-16T08:35:22;10.50;99.90
64855;DHT22;51321;50.428;8.378;2023-04-16T08:38:03;10.50;99.90
64855;DHT22;51321;50.428;8.378;2023-04-16T08:40:47;10.70;99.90
64855;DHT22;51321;50.428;8.378;2023-04-16T08:43:33;10.70;99.90
64855;DHT22;51321;50.428;8.378;2023-04-16T08:46:20;10.80;99.90
64855;DHT22;51321;50.428;8.378;2023-04-16T08:49:05;10.90;99.90
64855;DHT22;51321;50.428;8.378;2023-04-16T08:51:50;11.10;99.90
64855;DHT22;51321;50.428;8.378;2023-04-16T08:54:38;11.40;99.90
64855;DHT22;51321;50.428;8.378;2023-04-16T08:57:23;11.60;99.90
64855;DHT22;51321;50.428;8.378;2023-04-16T09:00:08;11.80;99.90
64855;DHT22;51321;50.428;8.378;2023-04-16T09:02:49;12.00;99.90
64855;DHT22;51321;50.428;8.378;2023-04-16T09:05:32;12.30;99.90
64855;DHT22;51321;50.428;8.378;2023-04-16T09:08:13;12.40;99.90
64855;DHT22;51321;50.428;8.378;2023-04-16T09:10:54;12.50;99.90
64855;DHT22;51321;50.428;8.378;2023-04-16T09:13:37;12.60;99.90
64855;DHT22;51321;50.428;8.378;2023-04-16T09:16:21;12.80;99.90
64855;DHT22;51321;50.428;8.378;2023-04-16T09:19:02;12.80;99.90
64855;DHT22;51321;50.428;8.378;2023-04-16T09:21:45;12.80;99.90
64855;DHT22;51321;50.428;8.378;2023-04-16T09:24:28;12.50;99.90
64855;DHT22;51321;50.428;8.378;2023-04-16T09:27:12;12.50;99.90
64855;DHT22;51321;50.428;8.378;2023-04-16T09:29:56;12.20;99.90
64855;DHT22;51321;50.428;8.378;2023-04-16T09:32:37;12.20;99.90
64855;DHT22;51321;50.428;8.378;2023-04-16T09:35:19;12.00;99.90
64855;DHT22;51321;50.428;8.378;2023-04-16T09:38:00;12.00;99.90
64855;DHT22;51321;50.428;8.378;2023-04-16T09:40:41;11.90;99.90
64855;DHT22;51321;50.428;8.378;2023-04-16T09:43:22;11.90;99.90
64855;DHT22;51321;50.428;8.378;2023-04-16T09:46:04;12.00;99.90
64855;DHT22;51321;50.428;8.378;2023-04-16T09:48:45;12.00;99.90
64855;DHT22;51321;50.428;8.378;2023-04-16T09:51:35;12.10;99.90
64855;DHT22;51321;50.428;8.378;2023-04-16T09:54:18;12.10;99.90
64855;DHT22;51321;50.428;8.378;2023-04-16T09:57:00;12.30;99.90
64855;DHT22;51321;50.428;8.378;2023-04-16T09:59:41;12.50;99.90
64855;DHT22;51321;50.428;8.378;2023-04-16T10:02:27;12.70;99.90
64855;DHT22;51321;50.428;8.378;2023-04-16T10:05:13;12.80;99.90
64855;DHT22;51321;50.428;8.378;2023-04-16T10:07:59;12.70;99.90
64855;DHT22;51321;50.428;8.378;2023-04-16T10:10:41;12.50;99.90
64855;DHT22;51321;50.428;8.378;2023-04-16T10:13:22;12.40;99.90
64855;DHT22;51321;50.428;8.378;2023-04-16T10:16:07;12.30;99.90
64855;DHT22;51321;50.428;8.378;2023-04-16T10:18:49;12.20;99.90
64855;DHT22;51321;50.428;8.378;2023-04-16T10:21:30;12.10;99.90
64855;DHT22;51321;50.428;8.378;2023-04-16T10:24:12;11.90;99.90
64855;DHT22;51321;50.428;8.378;2023-04-16T10:26:56;12.00;99.90
64855;DHT22;51321;50.428;8.378;2023-04-16T10:29:38;12.00;99.90
64855;DHT22;51321;50.428;8.378;2023-04-16T10:32:21;12.20;99.90
64855;DHT22;51321;50.428;8.378;2023-04-16T10:35:08;12.30;99.90
64855;DHT22;51321;50.428;8.378;2023-04-16T10:37:55;12.30;99.90
64855;DHT22;51321;50.428;8.378;2023-04-16T10:40:36;12.50;99.90
64855;DHT22;51321;50.428;8.378;2023-04-16T10:43:17;12.60;99.90
64855;DHT22;51321;50.428;8.378;2023-04-16T10:46:16;12.70;99.90
64855;DHT22;51321;50.428;8.378;2023-04-16T10:49:01;12.70;99.90
64855;DHT22;51321;50.428;8.378;2023-04-16T10:51:52;12.70;99.90
64855;DHT22;51321;50.428;8.378;2023-04-16T10:54:34;12.70;99.90
64855;DHT22;51321;50.428;8.378;2023-04-16T10:57:17;12.80;99.90
64855;DHT22;51321;50.428;8.378;2023-04-16T10:59:59;12.80;99.90
64855;DHT22;51321;50.428;8.378;2023-04-16T11:02:40;12.90;99.90
64855;DHT22;51321;50.428;8.378;2023-04-16T11:05:21;12.80;99.90
64855;DHT22;51321;50.428;8.378;2023-04-16T11:08:12;12.80;99.90
64855;DHT22;51321;50.428;8.378;2023-04-16T11:10:57;12.70;99.90
64855;DHT22;51321;50.428;8.378;2023-04-16T11:13:42;12.80;99.90
64855;DHT22;51321;50.428;8.378;2023-04-16T11:16:24;12.90;99.90
64855;DHT22;51321;50.428;8.378;2023-04-16T11:19:06;12.80;99.90
64855;DHT22;51321;50.428;8.378;2023-04-16T11:21:48;12.90;99.90
64855;DHT22;51321;50.428;8.378;2023-04-16T11:24:32;13.00;99.90
64855;DHT22;51321;50.428;8.378;2023-04-16T11:27:13;12.90;99.90
64855;DHT22;51321;50.428;8.378;2023-04-16T11:29:58;12.70;99.90
64855;DHT22;51321;50.428;8.378;2023-04-16T11:32:40;12.80;99.90
64855;DHT22;51321;50.428;8.378;2023-04-16T11:35:21;13.10;99.90
64855;DHT22;51321;50.428;8.378;2023-04-16T11:38:02;13.40;99.90
64855;DHT22;51321;50.428;8.378;2023-04-16T11:40:48;13.60;99.90
64855;DHT22;51321;50.428;8.378;2023-04-16T11:43:31;13.50;99.90
64855;DHT22;51321;50.428;8.378;2023-04-16T11:46:12;13.30;99.90
64855;DHT22;51321;50.428;8.378;2023-04-16T11:48:54;13.40;99.90
64855;DHT22;51321;50.428;8.378;2023-04-16T11:51:39;13.30;99.90
64855;DHT22;51321;50.428;8.378;2023-04-16T11:54:20;13.20;99.90
64855;DHT22;51321;50.428;8.378;2023-04-16T11:57:03;13.20;99.90
64855;DHT22;51321;50.428;8.378;2023-04-16T11:59:45;13.30;99.90
64855;DHT22;51321;50.428;8.378;2023-04-16T12:02:36;13.50;99.90
64855;DHT22;51321;50.428;8.378;2023-04-16T12:05:30;13.70;99.90
64855;DHT22;51321;50.428;8.378;2023-04-16T12:08:11;13.90;99.90
64855;DHT22;51321;50.428;8.378;2023-04-16T12:10:53;13.90;99.90
64855;DHT22;51321;50.428;8.378;2023-04-16T12:13:36;13.90;99.90
64855;DHT22;51321;50.428;8.378;2023-04-16T12:16:19;14.00;99.90
64855;DHT22;51321;50.428;8.378;2023-04-16T12:19:00;14.30;99.90
64855;DHT22;51321;50.428;8.378;2023-04-16T12:21:44;14.40;99.90
64855;DHT22;51321;50.428;8.378;2023-04-16T12:24:25;14.50;99.90
64855;DHT22;51321;50.428;8.378;2023-04-16T12:27:06;14.60;99.90
64855;DHT22;51321;50.428;8.378;2023-04-16T12:30:03;14.40;99.90
64855;DHT22;51321;50.428;8.378;2023-04-16T12:32:46;14.30;99.90
64855;DHT22;51321;50.428;8.378;2023-04-16T12:35:31;14.20;99.90
64855;DHT22;51321;50.428;8.378;2023-04-16T12:38:12;14.30;99.90
64855;DHT22;51321;50.428;8.378;2023-04-16T12:40:53;14.30;99.90
64855;DHT22;51321;50.428;8.378;2023-04-16T12:43:35;14.10;99.90
64855;DHT22;51321;50.428;8.378;2023-04-16T12:46:18;14.20;99.90
64855;DHT22;51321;50.428;8.378;2023-04-16T12:48:58;14.30;99.90
64855;DHT22;51321;50.428;8.378;2023-04-16T12:51:39;14.40;99.90
64855;DHT22;51321;50.428;8.378;2023-04-16T12:54:20;14.90;99.90
64855;DHT22;51321;50.428;8.378;2023-04-16T12:57:01;15.30;99.90
64855;DHT22;51321;50.428;8.378;2023-04-16T12:59:42;15.30;99.90
64855;DHT22;51321;50.428;8.378;2023-04-16T13:02:26;15.70;99.90
64855;DHT22;51321;50.428;8.378;2023-04-16T13:05:07;15.60;99.90
64855;DHT22;51321;50.428;8.378;2023-04-16T13:07:48;14.80;99.90
64855;DHT22;51321;50.428;8.378;2023-04-16T13:10:29;14.40;99.90
64855;DHT22;51321;50.428;8.378;2023-04-16T13:13:10;14.30;99.90
64855;DHT22;51321;50.428;8.378;2023-04-16T13:15:53;14.30;99.90
64855;DHT22;51321;50.428;8.378;2023-04-16T13:18:35;14.50;99.90
64855;DHT22;51321;50.428;8.378;2023-04-16T13:21:17;14.30;99.90
64855;DHT22;51321;50.428;8.378;2023-04-16T13:24:00;14.00;99.90
64855;DHT22;51321;50.428;8.378;2023-04-16T13:26:42;13.90;99.90
64855;DHT22;51321;50.428;8.378;2023-04-16T13:29:23;13.80;99.90
64855;DHT22;51321;50.428;8.378;2023-04-16T13:32:04;13.90;99.90
64855;DHT22;51321;50.428;8.378;2023-04-16T13:34:47;13.80;99.90
64855;DHT22;51321;50.428;8.378;2023-04-16T13:37:31;13.80;99.90
64855;DHT22;51321;50.428;8.378;2023-04-16T13:40:12;14.10;99.90
64855;DHT22;51321;50.428;8.378;2023-04-16T13:42:53;14.20;99.90
64855;DHT22;51321;50.428;8.378;2023-04-16T13:45:36;14.30;99.90
64855;DHT22;51321;50.428;8.378;2023-04-16T13:48:16;14.40;99.90
64855;DHT22;51321;50.428;8.378;2023-04-16T13:50:59;14.40;99.90
64855;DHT22;51321;50.428;8.378;2023-04-16T13:53:42;14.30;99.90
64855;DHT22;51321;50.428;8.378;2023-04-16T13:56:24;14.10;99.90
64855;DHT22;51321;50.428;8.378;2023-04-16T13:59:04;14.30;99.90
64855;DHT22;51321;50.428;8.378;2023-04-16T14:01:46;14.20;99.90
64855;DHT22;51321;50.428;8.378;2023-04-16T14:04:27;14.30;99.90
64855;DHT22;51321;50.428;8.378;2023-04-16T14:07:10;14.30;99.90
64855;DHT22;51321;50.428;8.378;2023-04-16T14:09:50;14.40;99.90
64855;DHT22;51321;50.428;8.378;2023-04-16T14:12:31;14.50;99.90
64855;DHT22;51321;50.428;8.378;2023-04-16T14:15:12;14.40;99.90
64855;DHT22;51321;50.428;8.378;2023-04-16T14:18:01;14.30;99.90
64855;DHT22;51321;50.428;8.378;2023-04-16T14:20:42;14.20;99.90
64855;DHT22;51321;50.428;8.378;2023-04-16T14:23:25;14.30;99.90
64855;DHT22;51321;50.428;8.378;2023-04-16T14:26:06;14.30;99.90
64855;DHT22;51321;50.428;8.378;2023-04-16T14:28:47;14.30;99.90
64855;DHT22;51321;50.428;8.378;2023-04-16T14:31:27;14.40;99.90
64855;DHT22;51321;50.428;8.378;2023-04-16T14:34:09;14.50;99.90
64855;DHT22;51321;50.428;8.378;2023-04-16T14:36:50;14.40;99.90
64855;DHT22;51321;50.428;8.378;2023-04-16T14:39:32;14.30;99.90
64855;DHT22;51321;50.428;8.378;2023-04-16T14:42:13;14.20;99.90
64855;DHT22;51321;50.428;8.378;2023-04-16T14:44:54;14.20;99.90
64855;DHT22;51321;50.428;8.378;2023-04-16T14:47:36;14.10;99.90
64855;DHT22;51321;50.428;8.378;2023-04-16T14:50:24;14.10;99.90
64855;DHT22;51321;50.428;8.378;2023-04-16T14:53:05;14.20;99.90
64855;DHT22;51321;50.428;8.378;2023-04-16T14:55:47;14.20;99.90
64855;DHT22;51321;50.428;8.378;2023-04-16T14:58:28;14.20;99.90
64855;DHT22;51321;50.428;8.378;2023-04-16T15:01:10;14.30;99.90
64855;DHT22;51321;50.428;8.378;2023-04-16T15:03:54;14.20;99.90
64855;DHT22;51321;50.428;8.378;2023-04-16T15:06:35;14.30;99.90
64855;DHT22;51321;50.428;8.378;2023-04-16T15:09:16;14.40;99.90
64855;DHT22;51321;50.428;8.378;2023-04-16T15:11:58;14.50;99.90
64855;DHT22;51321;50.428;8.378;2023-04-16T15:14:39;14.40;99.90
64855;DHT22;51321;50.428;8.378;2023-04-16T15:17:21;14.40;99.90
64855;DHT22;51321;50.428;8.378;2023-04-16T15:20:02;14.10;99.90
64855;DHT22;51321;50.428;8.378;2023-04-16T15:22:46;13.80;99.90
64855;DHT22;51321;50.428;8.378;2023-04-16T15:25:27;13.80;99.90
64855;DHT22;51321;50.428;8.378;2023-04-16T15:28:09;13.70;99.90
64855;DHT22;51321;50.428;8.378;2023-04-16T15:30:51;13.50;99.90
64855;DHT22;51321;50.428;8.378;2023-04-16T15:33:32;13.50;99.90
64855;DHT22;51321;50.428;8.378;2023-04-16T15:36:13;13.50;99.90
64855;DHT22;51321;50.428;8.378;2023-04-16T15:38:57;13.60;99.90
64855;DHT22;51321;50.428;8.378;2023-04-16T15:41:38;13.40;99.90
64855;DHT22;51321;50.428;8.378;2023-04-16T15:44:20;13.40;99.90
64855;DHT22;51321;50.428;8.378;2023-04-16T15:47:04;13.00;99.90
64855;DHT22;51321;50.428;8.378;2023-04-16T15:49:46;13.00;99.90
64855;DHT22;51321;50.428;8.378;2023-04-16T15:52:27;13.20;99.90
64855;DHT22;51321;50.428;8.378;2023-04-16T15:55:08;13.20;99.90
64855;DHT22;51321;50.428;8.378;2023-04-16T15:57:49;13.20;99.90
64855;DHT22;51321;50.428;8.378;2023-04-16T16:00:31;13.20;99.90
64855;DHT22;51321;50.428;8.378;2023-04-16T16:03:13;13.30;99.90
64855;DHT22;51321;50.428;8.378;2023-04-16T16:05:53;13.30;99.90
64855;DHT22;51321;50.428;8.378;2023-04-16T16:08:34;13.20;99.90
64855;DHT22;51321;50.428;8.378;2023-04-16T16:11:16;13.00;99.90
64855;DHT22;51321;50.428;8.378;2023-04-16T16:14:00;12.80;99.90
64855;DHT22;51321;50.428;8.378;2023-04-16T16:16:42;12.50;99.90
64855;DHT22;51321;50.428;8.378;2023-04-16T16:19:23;12.60;99.90
64855;DHT22;51321;50.428;8.378;2023-04-16T16:22:04;12.50;99.90
64855;DHT22;51321;50.428;8.378;2023-04-16T16:24:44;12.50;99.90
64855;DHT22;51321;50.428;8.378;2023-04-16T16:27:27;12.50;99.90
64855;DHT22;51321;50.428;8.378;2023-04-16T16:30:09;12.60;99.90
64855;DHT22;51321;50.428;8.378;2023-04-16T16:32:52;12.60;99.90
64855;DHT22;51321;50.428;8.378;2023-04-16T16:35:32;12.60;99.90
64855;DHT22;51321;50.428;8.378;2023-04-16T16:38:13;12.60;99.90
64855;DHT22;51321;50.428;8.378;2023-04-16T16:40:54;12.70;99.90
64855;DHT22;51321;50.428;8.378;2023-04-16T16:43:35;12.60;99.90
64855;DHT22;51321;50.428;8.378;2023-04-16T16:46:16;12.50;99.90
64855;DHT22;51321;50.428;8.378;2023-04-16T16:48:59;12.50;99.90
64855;DHT22;51321;50.428;8.378;2023-04-16T16:51:39;12.50;99.90
64855;DHT22;51321;50.428;8.378;2023-04-16T16:54:21;12.50;99.90
64855;DHT22;51321;50.428;8.378;2023-04-16T16:57:01;12.40;99.90
64855;DHT22;51321;50.428;8.378;2023-04-16T16:59:42;12.50;99.90
64855;DHT22;51321;50.428;8.378;2023-04-16T17:02:23;12.50;99.90
64855;DHT22;51321;50.428;8.378;2023-04-16T17:05:06;12.50;99.90
64855;DHT22;51321;50.428;8.378;2023-04-16T17:07:47;12.30;99.90
64855;DHT22;51321;50.428;8.378;2023-04-16T17:10:28;12.10;99.90
64855;DHT22;51321;50.428;8.378;2023-04-16T17:13:12;12.10;99.90